sensor_id;sensor_type;location;lat;lon;timestamp;P1;durP1;ratioP1;P2;durP2;ratioP2
5955;SDS011;3004;48.080;11.600;2022-10-17T07:56:47;69.40;;;11.40;;
5955;SDS011;3004;48.080;11.600;2022-10-17T07:59:34;68.17;;;9.70;;
5955;SDS011;3004;48.080;11.600;2022-10-17T08:02:56;68.03;;;9.67;;
5955;SDS011;3004;48.080;11.600;2022-10-17T08:12:06;67.80;;;9.83;;
5955;SDS011;3004;48.080;11.600;2022-10-17T08:15:01;67.70;;;9.87;;
5955;SDS011;3004;48.080;11.600;2022-10-17T09:06:16;73.07;;;5.50;;
5955;SDS011;3004;48.080;11.600;2022-10-17T09:12:23;66.90;;;4.20;;
5955;SDS011;3004;48.080;11.600;2022-10-17T09:18:08;67.67;;;4.73;;
5955;SDS011;3004;48.080;11.600;2022-10-17T09:20:42;66.77;;;3.80;;
5955;SDS011;3004;48.080;11.600;2022-10-17T09:23:35;66.63;;;3.33;;
5955;SDS011;3004;48.080;11.600;2022-10-17T09:26:08;67.27;;;3.70;;
5955;SDS011;3004;48.080;11.600;2022-10-17T09:28:39;66.33;;;2.63;;
5955;SDS011;3004;48.080;11.600;2022-10-17T09:31:17;66.00;;;2.30;;
5955;SDS011;3004;48.080;11.600;2022-10-17T09:33:47;66.60;;;2.60;;
5955;SDS011;3004;48.080;11.600;2022-10-17T09:36:18;66.17;;;1.60;;
5955;SDS011;3004;48.080;11.600;2022-10-17T09:38:49;66.57;;;2.13;;
5955;SDS011;3004;48.080;11.600;2022-10-17T09:41:19;66.80;;;1.57;;
5955;SDS011;3004;48.080;11.600;2022-10-17T09:43:53;67.17;;;1.60;;
5955;SDS011;3004;48.080;11.600;2022-10-17T09:46:23;68.00;;;2.13;;
5955;SDS011;3004;48.080;11.600;2022-10-17T09:48:59;68.20;;;2.43;;
5955;SDS011;3004;48.080;11.600;2022-10-17T09:51:32;66.37;;;1.60;;
5955;SDS011;3004;48.080;11.600;2022-10-17T09:54:11;66.80;;;1.67;;
5955;SDS011;3004;48.080;11.600;2022-10-17T09:56:58;67.40;;;1.90;;
5955;SDS011;3004;48.080;11.600;2022-10-17T09:59:37;67.60;;;2.80;;
5955;SDS011;3004;48.080;11.600;2022-10-17T10:02:13;66.77;;;1.20;;
5955;SDS011;3004;48.080;11.600;2022-10-17T10:04:59;67.50;;;1.50;;
5955;SDS011;3004;48.080;11.600;2022-10-17T10:07:28;66.87;;;1.40;;
5955;SDS011;3004;48.080;11.600;2022-10-17T10:16:45;66.50;;;1.23;;
5955;SDS011;3004;48.080;11.600;2022-10-17T10:22:36;66.47;;;1.30;;
5955;SDS011;3004;48.080;11.600;2022-10-17T10:25:07;66.40;;;1.20;;
5955;SDS011;3004;48.080;11.600;2022-10-17T10:27:40;66.70;;;1.37;;
5955;SDS011;3004;48.080;11.600;2022-10-17T10:30:16;67.90;;;1.80;;
5955;SDS011;3004;48.080;11.600;2022-10-17T10:32:46;66.77;;;1.20;;
5955;SDS011;3004;48.080;11.600;2022-10-17T10:35:19;66.90;;;1.27;;
5955;SDS011;3004;48.080;11.600;2022-10-17T10:37:57;66.77;;;1.20;;
5955;SDS011;3004;48.080;11.600;2022-10-17T10:40:31;66.73;;;1.20;;
5955;SDS011;3004;48.080;11.600;2022-10-17T10:43:03;66.50;;;1.13;;
5955;SDS011;3004;48.080;11.600;2022-10-17T10:45:39;73.30;;;3.33;;
5955;SDS011;3004;48.080;11.600;2022-10-17T10:54:19;67.20;;;1.37;;
5955;SDS011;3004;48.080;11.600;2022-10-17T10:56:51;66.80;;;1.40;;
5955;SDS011;3004;48.080;11.600;2022-10-17T10:59:21;68.40;;;2.90;;
5955;SDS011;3004;48.080;11.600;2022-10-17T11:01:55;67.10;;;1.60;;
5955;SDS011;3004;48.080;11.600;2022-10-17T11:04:29;67.07;;;1.57;;
5955;SDS011;3004;48.080;11.600;2022-10-17T11:10:32;67.13;;;1.20;;
5955;SDS011;3004;48.080;11.600;2022-10-17T11:13:24;66.97;;;1.30;;
5955;SDS011;3004;48.080;11.600;2022-10-17T11:15:55;72.67;;;1.57;;
5955;SDS011;3004;48.080;11.600;2022-10-17T11:18:43;67.17;;;1.20;;
5955;SDS011;3004;48.080;11.600;2022-10-17T11:21:22;67.07;;;1.10;;
5955;SDS011;3004;48.080;11.600;2022-10-17T11:27:20;67.27;;;1.20;;
5955;SDS011;3004;48.080;11.600;2022-10-17T11:29:49;66.80;;;1.10;;
5955;SDS011;3004;48.080;11.600;2022-10-17T11:35:56;67.10;;;1.10;;
5955;SDS011;3004;48.080;11.600;2022-10-17T11:38:35;67.67;;;1.30;;
5955;SDS011;3004;48.080;11.600;2022-10-17T11:41:09;66.90;;;1.20;;
5955;SDS011;3004;48.080;11.600;2022-10-17T11:43:42;66.90;;;1.13;;
5955;SDS011;3004;48.080;11.600;2022-10-17T11:46:15;67.00;;;1.20;;
5955;SDS011;3004;48.080;11.600;2022-10-17T11:52:15;67.90;;;1.40;;
5955;SDS011;3004;48.080;11.600;2022-10-17T11:58:24;68.50;;;1.77;;
5955;SDS011;3004;48.080;11.600;2022-10-17T12:01:06;67.83;;;1.60;;
5955;SDS011;3004;48.080;11.600;2022-10-17T12:06:51;67.57;;;1.50;;
5955;SDS011;3004;48.080;11.600;2022-10-17T12:09:26;67.77;;;1.20;;
5955;SDS011;3004;48.080;11.600;2022-10-17T12:12:01;69.47;;;1.87;;
5955;SDS011;3004;48.080;11.600;2022-10-17T12:14:44;68.80;;;1.30;;
5955;SDS011;3004;48.080;11.600;2022-10-17T12:17:28;67.47;;;1.30;;
5955;SDS011;3004;48.080;11.600;2022-10-17T12:20:23;67.37;;;1.53;;
5955;SDS011;3004;48.080;11.600;2022-10-17T12:29:38;67.60;;;1.20;;
5955;SDS011;3004;48.080;11.600;2022-10-17T12:32:10;67.80;;;1.60;;
5955;SDS011;3004;48.080;11.600;2022-10-17T12:34:38;67.50;;;1.30;;
5955;SDS011;3004;48.080;11.600;2022-10-17T12:43:52;67.67;;;1.57;;
5955;SDS011;3004;48.080;11.600;2022-10-17T12:49:42;67.90;;;1.40;;
5955;SDS011;3004;48.080;11.600;2022-10-17T12:52:21;67.43;;;1.30;;
5955;SDS011;3004;48.080;11.600;2022-10-17T12:54:55;67.10;;;1.17;;
5955;SDS011;3004;48.080;11.600;2022-10-17T12:57:38;66.37;;;1.23;;
5955;SDS011;3004;48.080;11.600;2022-10-17T13:03:03;67.20;;;1.57;;
5955;SDS011;3004;48.080;11.600;2022-10-17T13:05:39;67.30;;;1.23;;
5955;SDS011;3004;48.080;11.600;2022-10-17T13:08:13;67.57;;;1.10;;
5955;SDS011;3004;48.080;11.600;2022-10-17T13:10:44;70.20;;;2.07;;
5955;SDS011;3004;48.080;11.600;2022-10-17T13:13:19;67.40;;;1.20;;
5955;SDS011;3004;48.080;11.600;2022-10-17T13:15:53;67.83;;;1.47;;
5955;SDS011;3004;48.080;11.600;2022-10-17T13:25:08;68.07;;;1.97;;
5955;SDS011;3004;48.080;11.600;2022-10-17T13:27:44;70.20;;;1.73;;
5955;SDS011;3004;48.080;11.600;2022-10-17T13:39:51;68.00;;;1.60;;
5955;SDS011;3004;48.080;11.600;2022-10-17T13:42:22;67.97;;;1.50;;
5955;SDS011;3004;48.080;11.600;2022-10-17T13:57:47;66.77;;;1.10;;
5955;SDS011;3004;48.080;11.600;2022-10-17T14:00:17;67.83;;;1.50;;
5955;SDS011;3004;48.080;11.600;2022-10-17T14:02:46;67.50;;;1.40;;
5955;SDS011;3004;48.080;11.600;2022-10-17T14:05:14;67.37;;;1.60;;
5955;SDS011;3004;48.080;11.600;2022-10-17T14:07:43;67.57;;;1.53;;
5955;SDS011;3004;48.080;11.600;2022-10-17T14:10:19;67.87;;;2.07;;
5955;SDS011;3004;48.080;11.600;2022-10-17T14:12:52;68.00;;;1.30;;
5955;SDS011;3004;48.080;11.600;2022-10-17T14:15:21;67.47;;;1.57;;
5955;SDS011;3004;48.080;11.600;2022-10-17T14:17:53;67.30;;;1.30;;
5955;SDS011;3004;48.080;11.600;2022-10-17T14:20:23;67.20;;;1.10;;
5955;SDS011;3004;48.080;11.600;2022-10-17T14:22:53;67.23;;;1.37;;
5955;SDS011;3004;48.080;11.600;2022-10-17T14:25:26;67.30;;;1.10;;
5955;SDS011;3004;48.080;11.600;2022-10-17T14:28:00;69.47;;;2.10;;
5955;SDS011;3004;48.080;11.600;2022-10-17T14:30:35;67.27;;;1.00;;
5955;SDS011;3004;48.080;11.600;2022-10-17T14:33:04;67.03;;;1.30;;
5955;SDS011;3004;48.080;11.600;2022-10-17T14:35:36;66.93;;;1.20;;
5955;SDS011;3004;48.080;11.600;2022-10-17T14:38:04;67.13;;;1.30;;
5955;SDS011;3004;48.080;11.600;2022-10-17T14:40:47;67.37;;;1.30;;
5955;SDS011;3004;48.080;11.600;2022-10-17T14:43:18;67.00;;;1.10;;
5955;SDS011;3004;48.080;11.600;2022-10-17T14:45:47;67.77;;;1.40;;
5955;SDS011;3004;48.080;11.600;2022-10-17T14:48:15;67.53;;;1.20;;
5955;SDS011;3004;48.080;11.600;2022-10-17T14:53:35;68.97;;;2.10;;
5955;SDS011;3004;48.080;11.600;2022-10-17T14:56:19;67.53;;;1.73;;
5955;SDS011;3004;48.080;11.600;2022-10-17T14:58:50;66.80;;;1.20;;
5955;SDS011;3004;48.080;11.600;2022-10-17T15:01:17;67.43;;;1.30;;
5955;SDS011;3004;48.080;11.600;2022-10-17T15:03:47;67.47;;;1.20;;
5955;SDS011;3004;48.080;11.600;2022-10-17T15:06:16;67.23;;;1.30;;
5955;SDS011;3004;48.080;11.600;2022-10-17T15:08:51;68.20;;;2.20;;
5955;SDS011;3004;48.080;11.600;2022-10-17T15:11:20;67.07;;;1.30;;
5955;SDS011;3004;48.080;11.600;2022-10-17T15:13:53;80.73;;;2.30;;
5955;SDS011;3004;48.080;11.600;2022-10-17T15:16:29;67.57;;;1.60;;
5955;SDS011;3004;48.080;11.600;2022-10-17T15:18:57;66.97;;;1.20;;
5955;SDS011;3004;48.080;11.600;2022-10-17T15:21:26;67.57;;;1.40;;
5955;SDS011;3004;48.080;11.600;2022-10-17T15:23:53;68.77;;;1.63;;
5955;SDS011;3004;48.080;11.600;2022-10-17T15:26:24;68.80;;;2.23;;
5955;SDS011;3004;48.080;11.600;2022-10-17T15:28:56;67.23;;;1.50;;
5955;SDS011;3004;48.080;11.600;2022-10-17T15:31:24;67.27;;;1.20;;
5955;SDS011;3004;48.080;11.600;2022-10-17T15:33:52;66.93;;;1.13;;
5955;SDS011;3004;48.080;11.600;2022-10-17T15:36:21;66.60;;;1.37;;
5955;SDS011;3004;48.080;11.600;2022-10-17T15:38:49;67.20;;;1.53;;
5955;SDS011;3004;48.080;11.600;2022-10-17T15:41:21;67.47;;;2.07;;
5955;SDS011;3004;48.080;11.600;2022-10-17T15:43:50;66.53;;;1.40;;
5955;SDS011;3004;48.080;11.600;2022-10-17T15:46:23;66.87;;;1.30;;
5955;SDS011;3004;48.080;11.600;2022-10-17T15:48:51;66.77;;;1.40;;
5955;SDS011;3004;48.080;11.600;2022-10-17T15:51:18;67.90;;;2.83;;
5955;SDS011;3004;48.080;11.600;2022-10-17T15:53:46;66.80;;;1.70;;
5955;SDS011;3004;48.080;11.600;2022-10-17T15:56:17;68.00;;;2.47;;
5955;SDS011;3004;48.080;11.600;2022-10-17T15:58:47;67.47;;;2.57;;
5955;SDS011;3004;48.080;11.600;2022-10-17T16:01:18;66.77;;;1.50;;
5955;SDS011;3004;48.080;11.600;2022-10-17T16:03:52;66.80;;;1.70;;
5955;SDS011;3004;48.080;11.600;2022-10-17T16:06:19;66.90;;;1.60;;
5955;SDS011;3004;48.080;11.600;2022-10-17T16:08:51;67.03;;;2.10;;
5955;SDS011;3004;48.080;11.600;2022-10-17T16:11:20;67.70;;;2.10;;
5955;SDS011;3004;48.080;11.600;2022-10-17T16:13:53;66.80;;;2.13;;
5955;SDS011;3004;48.080;11.600;2022-10-17T16:16:23;66.80;;;1.93;;
5955;SDS011;3004;48.080;11.600;2022-10-17T16:18:53;66.77;;;2.20;;
5955;SDS011;3004;48.080;11.600;2022-10-17T16:24:44;66.60;;;2.00;;
5955;SDS011;3004;48.080;11.600;2022-10-17T16:40:13;67.20;;;2.93;;
5955;SDS011;3004;48.080;11.600;2022-10-17T16:42:40;66.47;;;2.30;;
5955;SDS011;3004;48.080;11.600;2022-10-17T16:45:07;67.60;;;3.47;;
5955;SDS011;3004;48.080;11.600;2022-10-17T16:47:40;69.47;;;3.13;;
5955;SDS011;3004;48.080;11.600;2022-10-17T16:50:07;67.30;;;3.10;;
5955;SDS011;3004;48.080;11.600;2022-10-17T16:52:35;66.50;;;2.50;;
5955;SDS011;3004;48.080;11.600;2022-10-17T16:55:02;69.30;;;3.10;;
5955;SDS011;3004;48.080;11.600;2022-10-17T16:57:30;66.30;;;2.70;;
5955;SDS011;3004;48.080;11.600;2022-10-17T16:59:58;68.63;;;4.10;;
5955;SDS011;3004;48.080;11.600;2022-10-17T17:02:25;68.63;;;4.50;;
5955;SDS011;3004;48.080;11.600;2022-10-17T17:04:52;68.07;;;3.00;;
5955;SDS011;3004;48.080;11.600;2022-10-17T17:07:21;67.13;;;2.90;;
5955;SDS011;3004;48.080;11.600;2022-10-17T17:09:48;66.90;;;2.90;;
5955;SDS011;3004;48.080;11.600;2022-10-17T17:12:15;67.07;;;3.10;;
5955;SDS011;3004;48.080;11.600;2022-10-17T17:14:44;67.13;;;3.30;;
5955;SDS011;3004;48.080;11.600;2022-10-17T17:17:11;71.00;;;3.50;;
5955;SDS011;3004;48.080;11.600;2022-10-17T17:19:38;67.20;;;3.20;;
5955;SDS011;3004;48.080;11.600;2022-10-17T17:22:05;67.17;;;3.23;;
5955;SDS011;3004;48.080;11.600;2022-10-17T17:24:32;67.40;;;3.57;;
5955;SDS011;3004;48.080;11.600;2022-10-17T17:26:59;67.37;;;3.20;;
5955;SDS011;3004;48.080;11.600;2022-10-17T17:29:26;67.40;;;3.30;;
5955;SDS011;3004;48.080;11.600;2022-10-17T17:31:55;67.47;;;3.63;;
5955;SDS011;3004;48.080;11.600;2022-10-17T17:34:22;67.63;;;3.40;;
5955;SDS011;3004;48.080;11.600;2022-10-17T17:36:49;67.20;;;3.40;;
5955;SDS011;3004;48.080;11.600;2022-10-17T17:39:16;67.37;;;3.50;;
5955;SDS011;3004;48.080;11.600;2022-10-17T17:41:43;86.33;;;4.77;;
5955;SDS011;3004;48.080;11.600;2022-10-17T17:44:11;67.47;;;3.60;;
5955;SDS011;3004;48.080;11.600;2022-10-17T17:46:39;67.40;;;3.50;;
5955;SDS011;3004;48.080;11.600;2022-10-17T17:49:09;67.27;;;3.70;;
5955;SDS011;3004;48.080;11.600;2022-10-17T17:51:37;67.50;;;3.50;;
5955;SDS011;3004;48.080;11.600;2022-10-17T17:54:05;67.20;;;3.50;;
5955;SDS011;3004;48.080;11.600;2022-10-17T17:56:35;72.93;;;4.93;;
5955;SDS011;3004;48.080;11.600;2022-10-17T17:59:02;67.27;;;3.40;;
5955;SDS011;3004;48.080;11.600;2022-10-17T18:01:31;85.43;;;6.47;;
5955;SDS011;3004;48.080;11.600;2022-10-17T18:04:02;67.20;;;3.53;;
5955;SDS011;3004;48.080;11.600;2022-10-17T18:06:33;69.13;;;4.37;;
5955;SDS011;3004;48.080;11.600;2022-10-17T18:09:01;67.97;;;3.80;;
5955;SDS011;3004;48.080;11.600;2022-10-17T18:11:29;68.70;;;4.97;;
5955;SDS011;3004;48.080;11.600;2022-10-17T18:14:09;68.47;;;4.30;;
5955;SDS011;3004;48.080;11.600;2022-10-17T18:19:59;67.77;;;3.90;;
5955;SDS011;3004;48.080;11.600;2022-10-17T18:22:33;67.60;;;3.80;;
5955;SDS011;3004;48.080;11.600;2022-10-17T18:28:22;69.00;;;4.83;;
5955;SDS011;3004;48.080;11.600;2022-10-17T18:30:50;68.30;;;4.00;;
5955;SDS011;3004;48.080;11.600;2022-10-17T18:33:17;69.57;;;5.23;;
5955;SDS011;3004;48.080;11.600;2022-10-17T18:35:46;67.90;;;4.13;;
5955;SDS011;3004;48.080;11.600;2022-10-17T18:38:14;68.00;;;4.40;;
5955;SDS011;3004;48.080;11.600;2022-10-17T18:40:42;68.57;;;4.33;;
5955;SDS011;3004;48.080;11.600;2022-10-17T18:43:09;67.70;;;4.30;;
5955;SDS011;3004;48.080;11.600;2022-10-17T18:45:36;68.20;;;4.20;;
5955;SDS011;3004;48.080;11.600;2022-10-17T18:48:03;68.33;;;4.30;;
5955;SDS011;3004;48.080;11.600;2022-10-17T18:50:31;68.57;;;4.27;;
5955;SDS011;3004;48.080;11.600;2022-10-17T18:52:58;67.83;;;4.27;;
5955;SDS011;3004;48.080;11.600;2022-10-17T18:55:27;68.17;;;4.40;;
5955;SDS011;3004;48.080;11.600;2022-10-17T18:57:55;68.57;;;4.47;;
5955;SDS011;3004;48.080;11.600;2022-10-17T19:00:24;68.30;;;4.50;;
5955;SDS011;3004;48.080;11.600;2022-10-17T19:02:51;68.30;;;4.47;;
5955;SDS011;3004;48.080;11.600;2022-10-17T19:08:53;68.37;;;4.70;;
5955;SDS011;3004;48.080;11.600;2022-10-17T19:11:22;68.57;;;4.53;;
5955;SDS011;3004;48.080;11.600;2022-10-17T19:13:52;68.60;;;4.80;;
5955;SDS011;3004;48.080;11.600;2022-10-17T19:16:22;69.60;;;5.20;;
5955;SDS011;3004;48.080;11.600;2022-10-17T19:18:51;68.40;;;4.90;;
5955;SDS011;3004;48.080;11.600;2022-10-17T19:21:19;68.57;;;4.80;;
5955;SDS011;3004;48.080;11.600;2022-10-17T19:23:48;68.67;;;4.93;;
5955;SDS011;3004;48.080;11.600;2022-10-17T19:29:39;69.10;;;5.30;;
5955;SDS011;3004;48.080;11.600;2022-10-17T19:32:08;68.80;;;5.40;;
5955;SDS011;3004;48.080;11.600;2022-10-17T19:34:35;69.27;;;5.47;;
5955;SDS011;3004;48.080;11.600;2022-10-17T19:37:04;70.13;;;6.30;;
5955;SDS011;3004;48.080;11.600;2022-10-17T19:39:31;69.30;;;5.80;;
5955;SDS011;3004;48.080;11.600;2022-10-17T19:45:21;69.10;;;5.50;;
5955;SDS011;3004;48.080;11.600;2022-10-17T19:47:48;69.27;;;5.37;;
5955;SDS011;3004;48.080;11.600;2022-10-17T19:50:18;69.00;;;5.57;;
5955;SDS011;3004;48.080;11.600;2022-10-17T19:52:45;69.07;;;5.47;;
5955;SDS011;3004;48.080;11.600;2022-10-17T19:55:16;68.40;;;5.47;;
5955;SDS011;3004;48.080;11.600;2022-10-17T19:57:43;69.23;;;5.40;;
5955;SDS011;3004;48.080;11.600;2022-10-17T20:00:15;69.00;;;5.47;;
5955;SDS011;3004;48.080;11.600;2022-10-17T20:02:46;69.10;;;5.50;;
5955;SDS011;3004;48.080;11.600;2022-10-17T20:05:14;68.30;;;5.33;;
5955;SDS011;3004;48.080;11.600;2022-10-17T20:07:45;68.70;;;5.50;;
5955;SDS011;3004;48.080;11.600;2022-10-17T20:10:24;69.03;;;5.40;;
5955;SDS011;3004;48.080;11.600;2022-10-17T20:12:54;68.60;;;5.40;;
5955;SDS011;3004;48.080;11.600;2022-10-17T20:15:27;68.87;;;5.60;;
5955;SDS011;3004;48.080;11.600;2022-10-17T20:18:03;68.63;;;5.37;;
5955;SDS011;3004;48.080;11.600;2022-10-17T20:20:33;68.87;;;5.70;;
5955;SDS011;3004;48.080;11.600;2022-10-17T20:23:01;69.07;;;5.40;;
5955;SDS011;3004;48.080;11.600;2022-10-17T20:25:28;69.27;;;6.27;;
5955;SDS011;3004;48.080;11.600;2022-10-17T20:28:01;70.10;;;6.87;;
5955;SDS011;3004;48.080;11.600;2022-10-17T20:30:34;68.40;;;5.40;;
5955;SDS011;3004;48.080;11.600;2022-10-17T20:33:12;68.60;;;5.33;;
5955;SDS011;3004;48.080;11.600;2022-10-17T20:36:03;68.83;;;5.30;;
5955;SDS011;3004;48.080;11.600;2022-10-17T20:38:47;68.40;;;5.33;;
5955;SDS011;3004;48.080;11.600;2022-10-17T20:41:28;70.00;;;6.53;;
5955;SDS011;3004;48.080;11.600;2022-10-17T20:43:58;68.77;;;5.30;;
5955;SDS011;3004;48.080;11.600;2022-10-17T20:46:31;69.73;;;6.10;;
5955;SDS011;3004;48.080;11.600;2022-10-17T20:49:00;68.57;;;5.60;;
5955;SDS011;3004;48.080;11.600;2022-10-17T20:51:37;68.60;;;5.37;;
5955;SDS011;3004;48.080;11.600;2022-10-17T20:54:16;69.57;;;5.63;;
5955;SDS011;3004;48.080;11.600;2022-10-17T20:56:50;68.57;;;5.33;;
5955;SDS011;3004;48.080;11.600;2022-10-17T20:59:20;68.47;;;5.17;;
5955;SDS011;3004;48.080;11.600;2022-10-17T21:02:00;68.77;;;5.40;;
5955;SDS011;3004;48.080;11.600;2022-10-17T21:04:30;68.57;;;5.43;;
5955;SDS011;3004;48.080;11.600;2022-10-17T21:06:58;68.70;;;5.40;;
5955;SDS011;3004;48.080;11.600;2022-10-17T21:09:44;68.80;;;5.83;;
5955;SDS011;3004;48.080;11.600;2022-10-17T21:12:38;68.87;;;5.30;;
5955;SDS011;3004;48.080;11.600;2022-10-17T21:15:26;69.13;;;5.77;;
5955;SDS011;3004;48.080;11.600;2022-10-17T21:21:18;68.50;;;5.50;;
5955;SDS011;3004;48.080;11.600;2022-10-17T21:23:56;68.83;;;5.67;;
5955;SDS011;3004;48.080;11.600;2022-10-17T21:29:48;69.00;;;5.60;;
5955;SDS011;3004;48.080;11.600;2022-10-17T21:36:15;68.90;;;5.90;;
5955;SDS011;3004;48.080;11.600;2022-10-17T21:45:37;69.37;;;6.07;;
5955;SDS011;3004;48.080;11.600;2022-10-17T21:48:09;69.83;;;5.93;;
5955;SDS011;3004;48.080;11.600;2022-10-17T21:50:59;69.80;;;6.03;;
5955;SDS011;3004;48.080;11.600;2022-10-17T21:53:44;69.93;;;6.10;;
5955;SDS011;3004;48.080;11.600;2022-10-17T21:56:34;69.20;;;6.13;;
5955;SDS011;3004;48.080;11.600;2022-10-17T21:59:31;72.60;;;7.83;;
5955;SDS011;3004;48.080;11.600;2022-10-17T22:02:04;69.70;;;6.27;;
5955;SDS011;3004;48.080;11.600;2022-10-17T22:04:42;69.70;;;6.23;;
5955;SDS011;3004;48.080;11.600;2022-10-17T22:07:26;69.60;;;6.20;;
5955;SDS011;3004;48.080;11.600;2022-10-17T22:10:17;69.67;;;6.17;;
